createdAt,value
2018-06-17T00:05:25.431Z,17.00
2018-06-17T00:07:54.443Z,16.90
2018-06-17T00:10:23.466Z,16.80
2018-06-17T00:12:52.434Z,16.80
2018-06-17T00:15:21.470Z,16.70
2018-06-17T00:17:50.553Z,16.70
2018-06-17T00:20:19.562Z,16.60
2018-06-17T00:22:49.804Z,16.60
2018-06-17T00:25:18.839Z,16.60
2018-06-17T00:27:47.798Z,16.50
2018-06-17T00:30:16.808Z,16.50
2018-06-17T00:32:45.798Z,16.40
2018-06-17T00:35:14.795Z,16.40
2018-06-17T00:37:43.758Z,16.30
2018-06-17T00:40:12.746Z,16.30
2018-06-17T00:42:41.706Z,16.20
2018-06-17T00:45:12.347Z,16.20
2018-06-17T00:47:41.294Z,16.20
2018-06-17T00:50:10.277Z,16.10
2018-06-17T00:52:39.282Z,16.10
2018-06-17T00:55:08.283Z,16.00
2018-06-17T00:57:47.268Z,16.00
2018-06-17T01:00:16.274Z,16.00
2018-06-17T01:02:45.754Z,15.90
2018-06-17T01:05:15.003Z,15.90
2018-06-17T01:07:44.009Z,15.90
2018-06-17T01:10:25.785Z,15.80
2018-06-17T01:12:54.754Z,15.80
2018-06-17T01:15:23.747Z,15.80
2018-06-17T01:17:52.714Z,15.80
2018-06-17T01:20:21.886Z,15.80
2018-06-17T01:22:50.838Z,15.80
2018-06-17T01:25:20.130Z,15.80
2018-06-17T01:27:49.131Z,15.70
2018-06-17T01:30:18.218Z,15.70
2018-06-17T01:32:47.250Z,15.70
2018-06-17T01:35:16.358Z,15.70
2018-06-17T01:37:45.347Z,15.70
2018-06-17T01:40:14.523Z,15.70
2018-06-17T01:42:43.782Z,15.60
2018-06-17T01:45:12.771Z,15.60
2018-06-17T01:47:41.723Z,15.60
2018-06-17T01:50:10.781Z,15.50
2018-06-17T01:52:39.777Z,15.50
2018-06-17T01:55:09.168Z,15.50
2018-06-17T01:57:38.125Z,15.40
2018-06-17T02:00:07.140Z,15.40
2018-06-17T02:02:36.178Z,15.30
2018-06-17T02:05:10.422Z,15.30
2018-06-17T02:07:44.667Z,15.30
2018-06-17T02:16:18.266Z,15.30
2018-06-17T02:18:47.254Z,15.20
2018-06-17T02:21:16.411Z,15.20
2018-06-17T02:23:45.379Z,15.10
2018-06-17T02:26:16.032Z,15.10
2018-06-17T02:28:46.523Z,15.00
2018-06-17T02:31:16.590Z,15.00
2018-06-17T02:33:45.559Z,15.00
2018-06-17T02:36:14.571Z,15.00
2018-06-17T02:38:43.554Z,14.90
2018-06-17T02:41:12.538Z,14.90
2018-06-17T02:43:41.527Z,14.90
2018-06-17T02:46:15.735Z,14.90
2018-06-17T02:48:49.771Z,14.90
2018-06-17T02:51:23.905Z,14.80
2018-06-17T02:54:29.875Z,14.80
2018-06-17T02:56:58.874Z,14.70
2018-06-17T02:59:27.844Z,14.70
2018-06-17T03:01:59.684Z,14.60
2018-06-17T03:04:28.670Z,14.60
2018-06-17T03:06:57.696Z,14.60
2018-06-17T03:09:26.939Z,14.50
2018-06-17T03:11:56.243Z,14.50
2018-06-17T03:14:25.406Z,14.40
2018-06-17T03:16:54.522Z,14.40
2018-06-17T03:19:23.847Z,14.40
2018-06-17T03:21:52.919Z,14.40
2018-06-17T03:24:26.938Z,14.40
2018-06-17T03:29:34.954Z,14.40
2018-06-17T03:43:40.722Z,14.40
2018-06-17T03:46:09.811Z,14.30
2018-06-17T03:48:39.502Z,14.30
2018-06-17T03:51:08.496Z,14.20
2018-06-17T03:53:37.476Z,14.20
2018-06-17T03:56:06.446Z,14.20
2018-06-17T03:58:35.450Z,14.20
2018-06-17T04:01:04.412Z,14.10
2018-06-17T04:03:33.420Z,14.10
2018-06-17T04:06:02.387Z,14.10
2018-06-17T04:08:31.396Z,14.10
2018-06-17T04:11:00.383Z,14.10
2018-06-17T04:13:29.374Z,14.10
2018-06-17T04:15:58.399Z,14.10
2018-06-17T04:18:27.363Z,14.10
2018-06-17T04:20:57.507Z,14.20
2018-06-17T04:23:26.489Z,14.20
2018-06-17T04:25:55.456Z,14.30
2018-06-17T04:28:25.288Z,14.30
2018-06-17T04:30:54.262Z,14.30
2018-06-17T04:33:23.251Z,14.30
2018-06-17T04:38:50.214Z,14.40
2018-06-17T04:41:19.182Z,14.50
2018-06-17T04:43:48.191Z,14.50
2018-06-17T04:46:17.150Z,14.60
2018-06-17T04:48:46.135Z,14.60
2018-06-17T04:51:15.969Z,14.60
2018-06-17T04:53:45.038Z,14.70
2018-06-17T04:56:14.021Z,14.80
2018-06-17T04:58:43.047Z,14.80
2018-06-17T05:01:13.299Z,14.90
2018-06-17T05:03:42.655Z,15.00
2018-06-17T05:06:11.676Z,15.10
2018-06-17T05:08:40.674Z,15.20
2018-06-17T05:11:09.650Z,15.20
2018-06-17T05:13:38.892Z,15.30
2018-06-17T05:16:07.839Z,15.40
2018-06-17T05:18:36.818Z,15.50
2018-06-17T05:21:05.785Z,15.60
2018-06-17T05:23:34.771Z,15.70
2018-06-17T05:26:03.751Z,15.90
2018-06-17T05:28:32.795Z,16.00
2018-06-17T05:31:01.772Z,16.10
2018-06-17T05:33:30.779Z,16.10
2018-06-17T05:35:59.835Z,16.20
2018-06-17T05:38:28.919Z,16.40
2018-06-17T05:40:58.933Z,16.50
2018-06-17T05:43:28.237Z,16.50
2018-06-17T05:45:58.009Z,16.60
2018-06-17T05:48:26.995Z,16.70
2018-06-17T05:50:56.086Z,16.80
2018-06-17T05:53:25.143Z,16.90
2018-06-17T05:55:54.131Z,16.90
2018-06-17T05:58:23.127Z,17.00
2018-06-17T06:00:52.070Z,17.10
2018-06-17T06:03:21.094Z,17.10
2018-06-17T06:05:50.038Z,17.20
2018-06-17T06:08:19.074Z,17.20
2018-06-17T06:10:48.802Z,17.30
2018-06-17T06:13:17.931Z,17.40
2018-06-17T06:15:46.989Z,17.50
2018-06-17T06:18:16.031Z,17.60
2018-06-17T06:20:45.261Z,17.70
2018-06-17T06:23:15.024Z,17.80
2018-06-17T06:25:44.474Z,17.90
2018-06-17T06:28:15.712Z,18.00
2018-06-17T06:30:44.979Z,18.10
2018-06-17T06:36:10.009Z,18.30
2018-06-17T06:38:39.975Z,18.40
2018-06-17T06:41:09.277Z,18.50
2018-06-17T06:43:39.966Z,18.70
2018-06-17T06:46:10.506Z,18.80
2018-06-17T06:48:39.932Z,18.90
2018-06-17T06:51:09.207Z,19.00
2018-06-17T06:53:39.941Z,19.10
2018-06-17T06:56:09.235Z,19.10
2018-06-17T06:58:38.493Z,19.10
2018-06-17T07:01:07.795Z,19.20
2018-06-17T07:03:47.988Z,19.20
2018-06-17T07:06:28.108Z,19.30
2018-06-17T07:09:08.215Z,19.30
2018-06-17T07:11:37.187Z,19.30
2018-06-17T07:14:06.211Z,19.40
2018-06-17T07:16:46.318Z,19.40
2018-06-17T07:19:15.675Z,19.30
2018-06-17T07:21:45.779Z,19.30
2018-06-17T07:24:14.753Z,19.30
2018-06-17T07:26:57.207Z,19.30
2018-06-17T07:29:43.467Z,19.30
2018-06-17T07:32:16.426Z,19.30
2018-06-17T07:34:45.454Z,19.30
2018-06-17T07:37:14.443Z,19.30
2018-06-17T07:40:19.679Z,19.30
2018-06-17T07:42:49.886Z,19.30
2018-06-17T07:45:18.873Z,19.30
2018-06-17T07:47:47.870Z,19.30
2018-06-17T07:50:27.810Z,19.30
2018-06-17T07:53:07.922Z,19.30
2018-06-17T07:55:37.258Z,19.20
2018-06-17T07:58:06.868Z,19.20
2018-06-17T08:00:36.123Z,19.20
2018-06-17T08:03:05.360Z,19.20
2018-06-17T08:05:34.362Z,19.10
2018-06-17T08:08:03.763Z,19.10
2018-06-17T08:10:32.762Z,19.10
2018-06-17T08:13:01.785Z,19.10
2018-06-17T08:15:30.987Z,19.10
2018-06-17T08:18:00.001Z,19.00
2018-06-17T08:20:29.052Z,19.10
2018-06-17T08:22:59.029Z,19.10
2018-06-17T08:25:30.879Z,19.10
2018-06-17T08:28:00.112Z,19.20
2018-06-17T08:30:29.127Z,19.30
2018-06-17T08:32:58.099Z,19.30
2018-06-17T08:35:27.099Z,19.40
2018-06-17T08:49:32.083Z,19.70
2018-06-17T08:52:01.099Z,19.80
2018-06-17T08:54:31.022Z,19.80
2018-06-17T08:57:00.012Z,19.80
2018-06-17T08:59:29.090Z,19.80
2018-06-17T09:01:58.150Z,19.80
2018-06-17T09:04:27.137Z,19.90
2018-06-17T09:07:10.302Z,19.90
2018-06-17T09:09:39.520Z,19.90
2018-06-17T09:12:10.465Z,19.90
2018-06-17T09:14:39.716Z,19.90
2018-06-17T09:17:08.724Z,19.90
2018-06-17T09:19:37.739Z,19.90
2018-06-17T09:22:24.607Z,19.90
2018-06-17T09:27:49.357Z,19.80
2018-06-17T09:30:18.733Z,19.80
2018-06-17T09:32:48.489Z,19.80
2018-06-17T09:35:18.001Z,19.70
2018-06-17T09:37:47.496Z,19.70
2018-06-17T09:43:10.941Z,19.70
2018-06-17T09:48:10.478Z,19.60
2018-06-17T09:50:40.193Z,19.50
2018-06-17T09:53:10.245Z,19.50
2018-06-17T09:55:40.999Z,19.50
2018-06-17T10:00:40.619Z,19.40
2018-06-17T10:03:10.382Z,19.30
2018-06-17T10:05:40.046Z,19.30
2018-06-17T10:11:08.542Z,19.20
2018-06-17T10:13:41.682Z,19.10
2018-06-17T10:16:11.051Z,19.10
2018-06-17T10:18:40.103Z,19.10
2018-06-17T10:21:09.124Z,19.10
2018-06-17T10:23:38.882Z,19.10
2018-06-17T10:26:07.894Z,19.10
2018-06-17T10:28:37.104Z,19.10
2018-06-17T10:31:07.114Z,19.10
2018-06-17T10:36:05.109Z,19.10
2018-06-17T10:38:34.110Z,19.10
2018-06-17T10:41:03.087Z,19.10
2018-06-17T10:46:01.918Z,19.20
2018-06-17T10:48:30.962Z,19.20
2018-06-17T10:50:59.911Z,19.20
2018-06-17T10:53:29.020Z,19.30
2018-06-17T10:55:58.048Z,19.30
2018-06-17T10:58:27.054Z,19.30
2018-06-17T11:00:56.023Z,19.40
2018-06-17T11:03:25.038Z,19.40
2018-06-17T11:05:54.043Z,19.40
2018-06-17T11:08:24.285Z,19.40
2018-06-17T11:10:53.287Z,19.40
2018-06-17T11:13:22.432Z,19.40
2018-06-17T11:15:51.338Z,19.50
2018-06-17T11:18:20.354Z,19.50
2018-06-17T11:20:49.319Z,19.50
2018-06-17T11:23:19.192Z,19.50
2018-06-17T11:25:48.326Z,19.50
2018-06-17T11:28:17.344Z,19.50
2018-06-17T11:30:46.294Z,19.50
2018-06-17T11:33:15.340Z,19.50
2018-06-17T11:35:45.655Z,19.50
2018-06-17T11:38:14.671Z,19.50
2018-06-17T11:40:43.698Z,19.50
2018-06-17T11:43:12.750Z,19.50
2018-06-17T11:45:41.706Z,19.60
2018-06-17T11:48:11.247Z,19.60
2018-06-17T11:50:40.971Z,19.70
2018-06-17T11:53:10.359Z,19.70
2018-06-17T11:55:39.779Z,19.80
2018-06-17T11:58:08.776Z,19.90
2018-06-17T12:00:38.735Z,20.00
2018-06-17T12:03:07.730Z,20.10
2018-06-17T12:05:36.854Z,20.20
2018-06-17T12:08:05.978Z,20.40
2018-06-17T12:10:34.967Z,20.50
2018-06-17T12:13:04.406Z,20.70
2018-06-17T12:15:33.407Z,20.80
2018-06-17T12:18:02.492Z,20.90
2018-06-17T12:20:31.731Z,20.90
2018-06-17T12:23:01.029Z,21.00
2018-06-17T12:25:31.376Z,21.00
2018-06-17T12:28:00.659Z,21.00
2018-06-17T12:30:29.687Z,21.10
2018-06-17T12:32:58.727Z,21.20
2018-06-17T12:35:27.687Z,21.30
2018-06-17T12:37:56.665Z,21.40
2018-06-17T12:40:25.650Z,21.60
2018-06-17T12:42:54.638Z,21.80
2018-06-17T12:45:23.670Z,21.90
2018-06-17T12:47:53.133Z,22.00
2018-06-17T12:50:24.293Z,22.30
2018-06-17T12:52:53.413Z,22.50
2018-06-17T12:55:22.419Z,22.70
2018-06-17T12:57:51.459Z,23.00
2018-06-17T13:00:20.462Z,23.20
2018-06-17T13:02:49.433Z,23.40
2018-06-17T13:05:18.502Z,23.50
2018-06-17T13:07:47.499Z,23.70
2018-06-17T13:10:16.595Z,23.90
2018-06-17T13:12:45.604Z,24.00
2018-06-17T13:15:14.590Z,24.10
2018-06-17T13:17:43.554Z,24.30
2018-06-17T13:20:12.675Z,24.30
2018-06-17T13:22:41.672Z,24.30
2018-06-17T13:25:10.703Z,24.30
2018-06-17T13:27:39.724Z,24.40
2018-06-17T13:30:09.077Z,24.30
2018-06-17T13:32:38.048Z,24.30
2018-06-17T13:35:07.644Z,24.30
2018-06-17T13:37:36.602Z,24.40
2018-06-17T13:40:06.385Z,24.30
2018-06-17T13:42:35.375Z,24.40
2018-06-17T13:45:04.827Z,24.30
2018-06-17T13:47:33.783Z,24.10
2018-06-17T13:50:02.859Z,24.00
2018-06-17T13:52:31.822Z,23.90
2018-06-17T13:55:01.095Z,23.90
2018-06-17T13:57:30.091Z,23.90
2018-06-17T13:59:59.680Z,23.90
2018-06-17T14:02:28.944Z,23.90
2018-06-17T14:04:57.941Z,23.80
2018-06-17T14:07:26.978Z,23.80
2018-06-17T14:09:56.219Z,23.70
2018-06-17T14:12:25.250Z,23.70
2018-06-17T14:14:54.263Z,23.70
2018-06-17T14:17:23.258Z,23.60
2018-06-17T14:19:52.366Z,23.60
2018-06-17T14:22:21.383Z,23.60
2018-06-17T14:24:51.228Z,23.70
2018-06-17T14:27:20.210Z,23.70
2018-06-17T14:29:49.236Z,23.70
2018-06-17T14:32:18.215Z,23.70
2018-06-17T14:34:47.206Z,23.70
2018-06-17T14:37:16.194Z,23.60
2018-06-17T14:39:45.212Z,23.70
2018-06-17T14:42:19.459Z,23.70
2018-06-17T14:44:53.887Z,23.80
2018-06-17T14:47:27.822Z,23.90
2018-06-17T14:50:02.210Z,24.00
2018-06-17T14:52:36.202Z,24.00
2018-06-17T14:55:05.331Z,23.90
2018-06-17T14:57:34.354Z,23.80
2018-06-17T15:00:03.540Z,23.70
2018-06-17T15:05:29.783Z,23.40
2018-06-17T15:07:58.792Z,23.30
2018-06-17T15:10:27.794Z,23.30
2018-06-17T15:12:58.091Z,23.20
2018-06-17T15:15:29.575Z,23.10
2018-06-17T15:17:59.413Z,23.10
2018-06-17T15:20:28.543Z,23.10
2018-06-17T15:22:57.511Z,23.00
2018-06-17T15:25:28.329Z,23.00
2018-06-17T15:27:57.364Z,22.90
2018-06-17T15:30:26.366Z,22.90
2018-06-17T15:33:00.651Z,22.90
2018-06-17T15:35:37.229Z,22.80
2018-06-17T15:38:12.394Z,22.80
2018-06-17T15:40:46.666Z,22.80
2018-06-17T15:43:16.130Z,22.80
2018-06-17T15:45:45.188Z,22.80
2018-06-17T15:48:14.373Z,22.80
2018-06-17T15:50:44.522Z,22.70
2018-06-17T15:53:14.187Z,22.80
2018-06-17T15:55:45.374Z,22.80
2018-06-17T15:58:14.927Z,22.80
2018-06-17T16:00:43.885Z,22.80
2018-06-17T16:03:12.935Z,22.70
2018-06-17T16:05:46.186Z,22.70
2018-06-17T16:08:15.182Z,22.60
2018-06-17T16:10:44.138Z,22.50
2018-06-17T16:13:18.234Z,22.40
2018-06-17T16:15:52.513Z,22.40
2018-06-17T16:18:26.784Z,22.30
2018-06-17T16:20:58.473Z,22.30
2018-06-17T16:23:27.869Z,22.20
2018-06-17T16:25:57.139Z,22.20
2018-06-17T16:28:26.187Z,22.20
2018-06-17T16:30:57.724Z,22.20
2018-06-17T16:33:31.122Z,22.20
2018-06-17T16:36:07.706Z,22.20
2018-06-17T16:38:36.759Z,22.20
2018-06-17T16:41:05.748Z,22.20
2018-06-17T16:43:34.807Z,22.20
2018-06-17T16:46:04.803Z,22.20
2018-06-17T16:48:33.820Z,22.10
2018-06-17T16:51:08.201Z,22.10
2018-06-17T16:53:42.429Z,22.10
2018-06-17T16:56:16.675Z,22.10
2018-06-17T17:01:56.103Z,22.00
2018-06-17T17:04:25.137Z,21.90
2018-06-17T17:06:54.748Z,21.90
2018-06-17T17:09:23.902Z,21.90
2018-06-17T17:11:53.371Z,21.90
2018-06-17T17:14:22.379Z,21.80
2018-06-17T17:16:51.367Z,21.80
2018-06-17T17:19:20.364Z,21.80
2018-06-17T17:21:49.366Z,21.70
2018-06-17T17:24:42.853Z,21.70
2018-06-17T17:27:11.804Z,21.60
2018-06-17T17:29:40.806Z,21.50
2018-06-17T17:32:14.901Z,21.50
2018-06-17T17:34:48.925Z,21.40
2018-06-17T17:37:24.421Z,21.30
2018-06-17T17:39:58.777Z,21.30
2018-06-17T17:42:27.916Z,21.20
2018-06-17T17:45:02.780Z,21.10
2018-06-17T17:47:32.877Z,21.10
2018-06-17T17:50:01.919Z,21.00
2018-06-17T17:52:30.900Z,21.00
2018-06-17T17:55:17.707Z,21.00
2018-06-17T17:57:47.703Z,20.90
2018-06-17T18:00:16.780Z,20.90
2018-06-17T18:02:45.770Z,20.90
2018-06-17T18:05:31.882Z,20.80
2018-06-17T18:08:01.063Z,20.80
2018-06-17T18:10:30.178Z,20.70
2018-06-17T18:12:59.325Z,20.70
2018-06-17T18:15:28.574Z,20.70
2018-06-17T18:17:57.530Z,20.70
2018-06-17T18:20:26.611Z,20.60
2018-06-17T18:22:55.624Z,20.60
2018-06-17T18:25:29.894Z,20.60
2018-06-17T18:28:04.167Z,20.50
2018-06-17T18:30:38.416Z,20.50
2018-06-17T18:33:12.680Z,20.50
2018-06-17T18:35:46.707Z,20.40
2018-06-17T18:38:15.731Z,20.40
2018-06-17T18:40:44.702Z,20.40
2018-06-17T18:43:13.751Z,20.30
2018-06-17T18:45:43.868Z,20.30
2018-06-17T18:48:12.834Z,20.20
2018-06-17T18:50:41.821Z,20.20
2018-06-17T18:53:10.815Z,20.20
2018-06-17T18:55:39.815Z,20.10
2018-06-17T18:58:08.802Z,20.00
2018-06-17T19:00:37.801Z,20.00
2018-06-17T19:03:06.785Z,20.00
2018-06-17T19:05:35.779Z,20.00
2018-06-17T19:08:04.883Z,19.90
2018-06-17T19:10:39.243Z,19.80
2018-06-17T19:13:13.456Z,19.80
2018-06-17T19:15:47.590Z,19.70
2018-06-17T19:18:16.872Z,19.70
2018-06-17T19:20:47.497Z,19.70
2018-06-17T19:23:16.503Z,19.60
2018-06-17T19:25:45.734Z,19.60
2018-06-17T19:28:14.686Z,19.60
2018-06-17T19:30:44.730Z,19.50
2018-06-17T19:33:13.747Z,19.50
2018-06-17T19:35:42.719Z,19.50
2018-06-17T19:38:19.902Z,19.40
2018-06-17T19:40:49.226Z,19.40
2018-06-17T19:43:18.199Z,19.40
2018-06-17T19:45:47.251Z,19.30
2018-06-17T19:48:16.475Z,19.30
2018-06-17T19:50:50.942Z,19.30
2018-06-17T19:53:25.266Z,19.20
2018-06-17T19:55:59.444Z,19.20
2018-06-17T19:58:33.754Z,19.10
2018-06-17T20:01:03.899Z,19.10
2018-06-17T20:03:34.647Z,19.10
2018-06-17T20:06:04.056Z,19.00
2018-06-17T20:08:33.090Z,19.00
2018-06-17T20:11:02.241Z,19.00
2018-06-17T20:13:31.319Z,19.00
2018-06-17T20:16:00.458Z,18.90
2018-06-17T20:18:29.441Z,18.90
2018-06-17T20:20:58.872Z,18.90
2018-06-17T20:23:27.891Z,18.90
2018-06-17T20:25:57.015Z,18.80
2018-06-17T20:28:26.558Z,18.80
2018-06-17T20:31:00.373Z,18.80
2018-06-17T20:33:34.735Z,18.80
2018-06-17T20:36:09.522Z,18.80
2018-06-17T20:38:43.686Z,18.80
2018-06-17T20:41:18.142Z,18.70
2018-06-17T20:43:50.019Z,18.70
2018-06-17T20:46:19.447Z,18.60
2018-06-17T20:48:49.379Z,18.60
2018-06-17T20:51:19.466Z,18.60
2018-06-17T20:53:48.902Z,18.60
2018-06-17T20:56:25.238Z,18.50
2018-06-17T20:58:54.239Z,18.50
2018-06-17T21:01:23.218Z,18.50
2018-06-17T21:06:20.778Z,18.30
2018-06-17T21:08:49.736Z,18.30
2018-06-17T21:11:19.296Z,18.20
2018-06-17T21:13:48.370Z,18.20
2018-06-17T21:16:18.997Z,18.20
2018-06-17T21:18:53.136Z,18.10
2018-06-17T21:21:27.283Z,18.10
2018-06-17T21:24:01.491Z,18.10
2018-06-17T21:26:35.702Z,18.10
2018-06-17T21:29:04.746Z,18.00
2018-06-17T21:31:33.718Z,18.00
2018-06-17T21:34:02.704Z,18.00
2018-06-17T21:36:31.907Z,18.00
2018-06-17T21:39:01.090Z,18.00
2018-06-17T21:41:30.055Z,17.90
2018-06-17T21:43:59.059Z,17.90
2018-06-17T21:46:28.061Z,17.90
2018-06-17T21:48:57.055Z,17.90
2018-06-17T21:51:26.335Z,17.80
2018-06-17T21:53:55.334Z,17.80
2018-06-17T21:56:24.338Z,17.80
2018-06-17T21:58:53.382Z,17.70
2018-06-17T22:01:22.627Z,17.70
2018-06-17T22:03:51.647Z,17.70
2018-06-17T22:06:20.662Z,17.70
2018-06-17T22:08:54.943Z,17.60
2018-06-17T22:11:34.262Z,17.60
2018-06-17T22:14:08.724Z,17.60
2018-06-17T22:16:42.895Z,17.60
2018-06-17T22:19:11.902Z,17.50
2018-06-17T22:21:40.859Z,17.50
2018-06-17T22:24:09.882Z,17.50
2018-06-17T22:26:38.866Z,17.40
2018-06-17T22:29:07.818Z,17.40
2018-06-17T22:31:37.201Z,17.40
2018-06-17T22:34:06.250Z,17.30
2018-06-17T22:36:35.194Z,17.30
2018-06-17T22:39:05.980Z,17.30
2018-06-17T22:41:34.994Z,17.20
2018-06-17T22:44:03.974Z,17.20
2018-06-17T22:46:33.003Z,17.10
2018-06-17T22:49:02.007Z,17.20
2018-06-17T22:51:31.080Z,17.10
2018-06-17T22:54:10.952Z,17.10
2018-06-17T22:56:45.069Z,17.10
2018-06-17T22:59:19.263Z,17.10
2018-06-17T23:01:53.785Z,17.00
2018-06-17T23:04:27.928Z,17.00
2018-06-17T23:07:02.119Z,17.00
2018-06-17T23:09:35.706Z,17.00
2018-06-17T23:12:05.045Z,17.00
2018-06-17T23:14:34.163Z,16.90
2018-06-17T23:17:03.408Z,16.90
2018-06-17T23:19:32.419Z,16.90
2018-06-17T23:22:01.399Z,16.90
2018-06-17T23:24:30.382Z,16.80
2018-06-17T23:26:59.339Z,16.80
2018-06-17T23:29:28.321Z,16.80
2018-06-17T23:34:25.802Z,16.80
2018-06-17T23:36:54.807Z,16.70
2018-06-17T23:39:23.914Z,16.70
2018-06-17T23:41:52.887Z,16.60
2018-06-17T23:44:21.886Z,16.70
2018-06-17T23:47:08.882Z,16.60
2018-06-17T23:49:43.209Z,16.60
2018-06-17T23:52:17.266Z,16.60
2018-06-17T23:54:51.395Z,16.60
2018-06-17T23:57:20.426Z,16.60
2018-06-17T23:59:49.394Z,16.60
